Time;durP1;ratioP1;P1;durP2;ratioP2;P2;SDS_P1;SDS_P2;PMS_P1;PMS_P2;Temp;Humidity;BMP_temperature;BMP_pressure;BME280_temperature;BME280_humidity;BME280_pressure;Samples;Min_cycle;Max_cycle;Signal;HPM_P1;HPM_P2
2022/09/24 00:00:34;;;;;;;6.60;4.40;;;;;;;19.82;53.39;101253.75;5013317;28;20049;-66
2022/09/24 00:03:00;;;;;;;6.22;4.57;;;;;;;19.76;53.28;101243.66;5013079;28;20259;-66
2022/09/24 00:05:25;;;;;;;6.70;4.88;;;;;;;19.79;53.15;101255.78;5012935;28;20033;-66
2022/09/24 00:07:50;;;;;;;6.32;4.50;;;;;;;19.74;53.32;101232.31;5012522;28;20048;-68
2022/09/24 00:10:15;;;;;;;6.57;4.70;;;;;;;19.75;53.28;101234.84;5012490;28;20588;-66
2022/09/24 00:12:41;;;;;;;6.45;4.40;;;;;;;19.76;53.27;101238.38;5013334;28;20290;-66
2022/09/24 00:15:06;;;;;;;6.57;4.87;;;;;;;19.73;53.26;101230.66;5012563;28;20997;-66
2022/09/24 00:17:32;;;;;;;6.22;4.65;;;;;;;19.77;53.10;101240.03;5012811;28;20269;-66
2022/09/24 00:19:57;;;;;;;7.07;4.67;;;;;;;19.72;53.35;101234.25;5012100;28;20072;-64
2022/09/24 00:22:22;;;;;;;6.67;4.50;;;;;;;19.75;53.21;101234.00;5013015;28;20270;-66
2022/09/24 00:27:31;;;;;;;7.18;4.72;;;;;;;19.69;53.43;101221.28;5012408;28;21056;-66
2022/09/24 00:29:57;;;;;;;6.63;4.40;;;;;;;19.64;53.36;101216.38;5012122;28;20069;-66
2022/09/24 00:32:23;;;;;;;6.70;4.57;;;;;;;19.73;53.06;101225.38;5012462;28;20270;-65
2022/09/24 00:34:50;;;;;;;8.27;4.93;;;;;;;19.72;53.30;101218.41;5012163;28;20267;-65
2022/09/24 00:37:18;;;;;;;6.40;4.43;;;;;;;19.71;53.30;101214.06;5011703;28;20545;-66
2022/09/24 00:39:44;;;;;;;6.65;5.00;;;;;;;19.67;53.27;101210.84;5012093;28;20026;-66
2022/09/24 00:42:10;;;;;;;7.15;4.78;;;;;;;19.64;53.26;101207.63;5012087;28;20490;-67
2022/09/24 00:44:49;;;;;;;6.80;4.35;;;;;;;19.69;53.42;101206.28;5012332;28;20524;-66
2022/09/24 00:47:26;;;;;;;7.05;4.75;;;;;;;19.70;53.32;101215.88;5011029;28;20030;-65
2022/09/24 00:50:00;;;;;;;6.97;4.95;;;;;;;19.67;53.31;101202.91;5012273;28;20099;-66
2022/09/24 00:52:25;;;;;;;;;;;;;;;19.70;53.29;101215.03;5012790;28;20582;-66
2022/09/24 00:54:52;;;;;;;7.27;4.80;;;;;;;19.65;53.27;101206.66;5012046;28;20020;-66
2022/09/24 00:57:18;;;;;;;6.65;4.72;;;;;;;19.64;53.42;101203.16;5011872;28;20473;-65
2022/09/24 00:59:44;;;;;;;6.57;4.60;;;;;;;19.65;53.35;101196.09;5011321;28;20041;-64
2022/09/24 01:02:09;;;;;;;6.38;4.30;;;;;;;19.64;53.25;101194.41;5011951;28;20449;-66
2022/09/24 01:04:35;;;;;;;7.03;4.43;;;;;;;19.61;53.36;101184.06;5012028;28;20041;-66
2022/09/24 01:07:00;;;;;;;7.25;4.40;;;;;;;19.62;53.58;101185.75;5010545;28;20034;-64
2022/09/24 01:09:26;;;;;;;9.32;5.40;;;;;;;19.64;53.53;101192.56;5012051;28;20037;-65
2022/09/24 01:12:06;;;;;;;7.90;5.20;;;;;;;19.64;53.16;101186.47;5011586;28;20022;-65
2022/09/24 01:14:50;;;;;;;7.25;4.85;;;;;;;19.58;53.46;101183.38;5011581;28;20034;-65
2022/09/24 01:17:46;;;;;;;6.13;4.53;;;;;;;19.63;53.45;101182.13;5011940;28;20041;-67
2022/09/24 01:20:44;;;;;;;7.60;5.13;;;;;;;19.63;53.36;101184.78;5011686;28;20496;-66
2022/09/24 01:23:21;;;;;;;6.63;4.80;;;;;;;19.62;53.34;101177.81;5012333;28;20114;-66
2022/09/24 01:26:07;;;;;;;7.40;4.85;;;;;;;19.61;53.52;101174.31;5011354;28;20596;-66
2022/09/24 01:28:54;;;;;;;7.13;4.78;;;;;;;19.56;53.44;101163.28;5011839;28;20137;-65
2022/09/24 01:31:29;;;;;;;6.78;5.07;;;;;;;19.61;53.45;101173.50;5011401;28;20572;-65
2022/09/24 01:33:58;;;;;;;7.80;5.30;;;;;;;19.58;53.45;101172.78;5011578;28;20034;-68
2022/09/24 01:36:26;;;;;;;7.05;4.93;;;;;;;19.55;53.24;101156.31;5009620;28;20046;-67
2022/09/24 01:38:54;;;;;;;7.60;5.00;;;;;;;19.53;53.51;101156.44;5011116;28;20088;-66
2022/09/24 01:41:20;;;;;;;6.38;4.68;;;;;;;19.58;53.27;101156.94;5010072;28;20029;-65
2022/09/24 01:43:47;;;;;;;6.95;5.10;;;;;;;19.55;53.47;101154.53;5011190;28;20191;-66
2022/09/24 01:46:15;;;;;;;7.60;4.70;;;;;;;19.56;53.56;101152.72;5011366;28;20032;-66
2022/09/24 01:48:41;;;;;;;7.72;4.80;;;;;;;19.53;53.42;101151.16;5011667;28;20041;-66
2022/09/24 01:51:12;;;;;;;6.88;5.00;;;;;;;19.50;53.63;101143.50;5011434;28;20447;-65
2022/09/24 01:53:56;;;;;;;6.68;4.72;;;;;;;19.52;53.56;101148.66;5010742;28;20347;-65
2022/09/24 01:56:27;;;;;;;7.33;5.03;;;;;;;19.56;53.61;101152.72;5011299;28;20034;-66
2022/09/24 01:59:04;;;;;;;7.55;4.97;;;;;;;19.54;53.32;101147.56;5014053;28;20574;-66
2022/09/24 02:01:37;;;;;;;6.90;5.03;;;;;;;19.49;53.57;101144.47;5015287;28;20033;-66
2022/09/24 02:04:07;;;;;;;6.53;4.90;;;;;;;19.52;53.51;101146.03;5015495;28;20045;-68
2022/09/24 02:06:39;;;;;;;7.47;5.00;;;;;;;19.52;53.54;101149.50;5015485;28;20168;-66
2022/09/24 02:09:04;;;;;;;7.63;5.03;;;;;;;19.49;53.36;101144.47;5014974;28;20381;-65
2022/09/24 02:11:34;;;;;;;7.40;4.85;;;;;;;19.48;53.74;101137.50;5015290;28;20029;-67
2022/09/24 02:14:12;;;;;;;7.55;5.13;;;;;;;19.47;53.55;101138.47;5014696;28;20171;-65
2022/09/24 02:16:45;;;;;;;8.30;5.18;;;;;;;19.50;53.66;101140.88;5012825;28;20466;-66
2022/09/24 02:19:16;;;;;;;6.80;4.85;;;;;;;19.51;53.46;101145.16;5015265;28;20099;-66
2022/09/24 02:21:44;;;;;;;7.57;5.15;;;;;;;19.44;53.46;101129.94;5014892;28;20037;-64
2022/09/24 02:24:15;;;;;;;7.00;5.25;;;;;;;19.49;53.65;101135.69;5014769;28;20027;-68
2022/09/24 02:26:41;;;;;;;7.07;5.00;;;;;;;19.47;53.60;101133.19;5013837;28;20033;-67
2022/09/24 02:29:06;;;;;;;7.32;5.07;;;;;;;19.45;53.63;101126.34;5014644;28;20053;-66
2022/09/24 02:31:37;;;;;;;7.85;5.43;;;;;;;19.46;53.61;101133.31;5014039;28;20068;-67
2022/09/24 02:34:20;;;;;;;7.75;5.25;;;;;;;19.48;53.58;101137.50;5015230;28;20135;-65
2022/09/24 02:36:48;;;;;;;7.13;5.03;;;;;;;19.48;53.78;101134.84;5014204;28;20026;-65
2022/09/24 02:39:13;;;;;;;7.05;5.40;;;;;;;19.41;53.90;101120.47;5014857;28;20052;-65
2022/09/24 02:41:41;;;;;;;7.75;5.63;;;;;;;19.47;53.60;101127.03;5013952;28;20026;-67
2022/09/24 02:44:07;;;;;;;8.73;5.43;;;;;;;19.42;53.73;101127.41;5014074;28;20076;-68
2022/09/24 02:46:32;;;;;;;8.70;4.88;;;;;;;19.41;53.67;101123.13;5014572;28;20057;-65
2022/09/24 02:48:57;;;;;;;7.75;4.93;;;;;;;19.42;53.55;101122.13;5014590;28;20041;-65
2022/09/24 02:51:23;;;;;;;6.80;5.07;;;;;;;19.43;53.59;101126.47;5014798;28;20026;-66
2022/09/24 02:53:48;;;;;;;8.30;5.15;;;;;;;19.44;53.82;101128.16;5014186;28;20294;-66
2022/09/24 02:56:14;;;;;;;7.63;5.55;;;;;;;19.45;53.62;101118.41;5013968;28;20112;-67
2022/09/24 02:58:39;;;;;;;7.93;5.55;;;;;;;19.45;53.67;101124.53;5020836;28;20447;-66
2022/09/24 03:01:05;;;;;;;6.97;4.93;;;;;;;19.45;53.73;101131.63;5014158;28;20025;-67
2022/09/24 03:03:30;;;;;;;7.30;5.55;;;;;;;19.40;53.72;101121.44;5014084;28;20040;-67
2022/09/24 03:05:56;;;;;;;7.13;5.45;;;;;;;19.40;53.52;101122.25;5013971;28;20378;-67
2022/09/24 03:08:22;;;;;;;9.30;6.28;;;;;;;19.39;53.50;101117.09;5014099;28;20037;-65
2022/09/24 03:10:48;;;;;;;8.10;6.07;;;;;;;19.41;53.78;101120.47;5012736;28;20123;-66
2022/09/24 03:13:13;;;;;;;8.20;5.78;;;;;;;19.36;53.80;101106.81;5013165;28;20091;-65
2022/09/24 03:15:39;;;;;;;7.90;5.60;;;;;;;19.35;53.76;101105.94;5013749;28;20042;-66
2022/09/24 03:18:04;;;;;;;7.47;5.50;;;;;;;19.35;53.64;101111.22;5013987;28;20109;-65
2022/09/24 03:20:29;;;;;;;6.95;5.38;;;;;;;19.40;53.81;101116.13;5013762;28;20034;-65
2022/09/24 03:22:55;;;;;;;7.80;5.82;;;;;;;19.39;53.87;101109.16;5013866;28;20038;-65
2022/09/24 03:25:20;;;;;;;8.05;6.03;;;;;;;19.39;54.08;101111.81;5013573;28;20890;-65
2022/09/24 03:27:46;;;;;;;7.35;5.65;;;;;;;19.33;53.92;101099.97;5013892;28;20099;-65
2022/09/24 03:32:56;;;;;;;8.93;5.95;;;;;;;19.32;53.80;101092.97;5013851;28;20153;-65
2022/09/24 03:35:21;;;;;;;7.22;5.72;;;;;;;19.37;53.89;101114.56;5013424;28;20120;-65
2022/09/24 03:37:47;;;;;;;7.78;6.15;;;;;;;19.31;53.85;101103.69;5013575;28;20025;-65
2022/09/24 03:40:12;;;;;;;7.80;5.88;;;;;;;19.32;53.82;101100.09;5013055;28;20029;-66
2022/09/24 03:42:37;;;;;;;7.50;5.63;;;;;;;19.35;53.76;101098.00;5013374;28;20021;-66
2022/09/24 03:45:03;;;;;;;9.07;6.65;;;;;;;19.30;53.96;101094.94;5012830;28;20179;-65
2022/09/24 03:47:29;;;;;;;8.30;5.97;;;;;;;19.30;53.92;101089.63;5013278;28;20101;-65
2022/09/24 03:49:55;;;;;;;9.00;6.05;;;;;;;19.34;54.05;101099.00;5012794;28;20061;-66
2022/09/24 03:52:20;;;;;;;8.73;5.97;;;;;;;19.30;53.92;101089.63;5013145;28;20687;-65
2022/09/24 03:54:45;;;;;;;7.97;5.35;;;;;;;19.35;53.83;101087.44;5013125;28;20053;-64
2022/09/24 03:57:13;;;;;;;9.20;6.50;;;;;;;19.33;54.06;101086.75;5013301;28;20037;-65
2022/09/24 03:59:39;;;;;;;8.55;6.25;;;;;;;19.34;53.88;101085.78;5012676;28;20375;-65
2022/09/24 04:02:05;;;;;;;8.75;6.53;;;;;;;19.21;53.96;101063.97;5013303;28;20029;-64
2022/09/24 04:04:30;;;;;;;8.23;5.97;;;;;;;19.30;54.01;101076.44;5013320;28;20049;-65
2022/09/24 04:06:56;;;;;;;7.97;6.30;;;;;;;19.33;53.72;101089.38;5012506;28;20029;-64
2022/09/24 04:09:21;;;;;;;8.10;6.10;;;;;;;19.29;53.94;101068.63;5012844;28;20358;-65
2022/09/24 04:11:46;;;;;;;7.43;5.65;;;;;;;19.30;53.90;101076.44;5012508;28;20367;-66
2022/09/24 04:14:11;;;;;;;8.13;6.20;;;;;;;19.28;53.95;101073.09;5013056;28;20044;-66
2022/09/24 04:16:37;;;;;;;8.15;5.85;;;;;;;19.34;54.06;101079.66;5012850;28;21408;-65
2022/09/24 04:19:02;;;;;;;8.90;6.35;;;;;;;19.27;54.03;101063.47;5012663;28;20072;-66
2022/09/24 04:21:29;;;;;;;7.80;5.72;;;;;;;19.27;54.15;101060.81;5012337;28;20137;-65
2022/09/24 04:23:54;;;;;;;7.60;5.43;;;;;;;19.27;54.25;101060.81;5012783;28;20029;-66
2022/09/24 04:26:19;;;;;;;8.10;5.77;;;;;;;19.31;54.05;101072.81;5012179;28;20060;-66
2022/09/24 04:28:44;;;;;;;7.45;5.63;;;;;;;19.30;54.01;101068.50;5012286;28;20322;-67
2022/09/24 04:31:10;;;;;;;8.10;5.80;;;;;;;19.27;54.03;101057.34;5012554;28;20037;-66
2022/09/24 04:33:35;;;;;;;7.75;5.82;;;;;;;19.27;54.12;101062.63;5012772;28;20266;-65
2022/09/24 04:36:01;;;;;;;7.47;5.53;;;;;;;19.26;53.95;101058.31;5013355;28;20088;-65
2022/09/24 04:38:26;;;;;;;8.68;6.03;;;;;;;19.26;54.12;101067.06;5012394;28;20029;-66
2022/09/24 04:40:52;;;;;;;7.23;5.47;;;;;;;19.15;54.00;101044.19;5012820;28;20022;-67
2022/09/24 04:43:17;;;;;;;8.30;5.70;;;;;;;19.29;54.21;101074.75;5012452;28;20272;-66
2022/09/24 04:45:43;;;;;;;9.20;6.00;;;;;;;19.24;54.17;101074.28;5012701;28;20033;-66
2022/09/24 04:48:09;;;;;;;7.38;5.80;;;;;;;19.28;53.96;101069.56;5012427;28;20416;-65
2022/09/24 04:50:34;;;;;;;7.45;5.47;;;;;;;19.28;54.09;101067.78;5012103;28;20137;-65
2022/09/24 04:53:00;;;;;;;8.07;5.38;;;;;;;19.27;54.24;101074.03;5011761;28;20022;-66
2022/09/24 04:55:26;;;;;;;8.52;6.03;;;;;;;19.23;54.21;101063.84;5027410;28;20034;-66
2022/09/24 04:57:55;;;;;;;7.15;5.50;;;;;;;19.24;54.28;101062.88;5012213;28;20112;-67
2022/09/24 05:00:21;;;;;;;7.38;5.47;;;;;;;19.28;54.08;101070.44;5012202;28;20061;-65
2022/09/24 05:02:54;;;;;;;7.18;5.72;;;;;;;19.27;54.33;101063.47;5011949;28;20065;-66
2022/09/24 05:05:19;;;;;;;7.57;5.32;;;;;;;19.24;54.28;101053.16;5011307;28;20225;-65
2022/09/24 05:07:45;;;;;;;7.40;5.20;;;;;;;19.26;54.01;101061.78;5012121;28;20366;-65
2022/09/24 05:10:10;;;;;;;7.40;5.13;;;;;;;19.27;54.32;101068.75;5011491;28;20249;-66
2022/09/24 05:12:35;;;;;;;8.77;5.68;;;;;;;19.26;54.38;101066.22;5011778;28;20450;-66
2022/09/24 05:15:01;;;;;;;7.53;5.07;;;;;;;19.25;54.11;101069.81;5011157;28;20159;-67
2022/09/24 05:17:26;;;;;;;7.10;5.35;;;;;;;19.26;54.21;101068.88;5011933;28;20267;-67
2022/09/24 05:19:52;;;;;;;7.70;5.35;;;;;;;19.25;54.03;101073.34;5011306;28;20385;-67
2022/09/24 05:22:18;;;;;;;6.93;5.30;;;;;;;19.23;54.31;101071.75;5011655;28;20033;-66
2022/09/24 05:24:43;;;;;;;7.20;5.30;;;;;;;19.24;54.33;101078.75;5011313;28;20056;-66
2022/09/24 05:27:09;;;;;;;7.07;5.20;;;;;;;19.26;54.32;101079.44;5011365;28;20041;-66
2022/09/24 05:29:39;;;;;;;7.47;4.90;;;;;;;19.26;54.11;101076.81;5010817;28;20843;-66
2022/09/24 05:32:06;;;;;;;7.28;5.22;;;;;;;19.25;53.98;101086.53;5011341;28;20123;-66
2022/09/24 05:34:32;;;;;;;7.85;4.97;;;;;;;19.20;54.20;101065.78;5010705;28;20191;-66
2022/09/24 05:36:57;;;;;;;7.07;5.03;;;;;;;19.26;54.13;101082.09;5011468;28;20476;-66
2022/09/24 05:39:23;;;;;;;6.15;4.53;;;;;;;19.25;54.21;101080.41;5011344;28;20025;-66
2022/09/24 05:41:48;;;;;;;6.32;4.57;;;;;;;19.25;53.90;101075.13;5011310;28;20108;-65
2022/09/24 05:44:13;;;;;;;7.53;4.82;;;;;;;19.19;54.24;101066.72;5011229;28;20041;-64
2022/09/24 05:46:38;;;;;;;7.53;4.93;;;;;;;19.25;54.17;101075.13;5011632;28;20037;-65
2022/09/24 05:49:04;;;;;;;7.20;4.97;;;;;;;19.23;54.15;101082.34;5010766;28;20266;-65
2022/09/24 05:51:29;;;;;;;5.85;4.43;;;;;;;19.20;54.03;101072.84;5011755;28;20112;-65
2022/09/24 05:53:54;;;;;;;6.73;4.73;;;;;;;19.19;54.17;101079.94;5011168;28;20409;-65
2022/09/24 05:56:20;;;;;;;6.60;4.50;;;;;;;19.24;54.23;101090.13;5011427;28;20259;-66
2022/09/24 05:58:48;;;;;;;6.80;4.90;;;;;;;19.22;54.17;101084.16;5011187;28;20052;-66
2022/09/24 06:01:14;;;;;;;6.70;4.70;;;;;;;19.08;54.17;101061.50;5011400;28;21109;-66
2022/09/24 06:03:39;;;;;;;7.57;4.40;;;;;;;19.19;54.33;101077.31;5011474;28;20057;-66
2022/09/24 06:06:05;;;;;;;5.90;4.03;;;;;;;19.24;54.08;101091.94;5011554;28;20263;-65
2022/09/24 06:08:32;;;;;;;7.63;4.47;;;;;;;19.22;54.07;101086.78;5011231;28;20021;-65
2022/09/24 06:11:01;;;;;;;7.53;4.40;;;;;;;19.25;53.94;101083.91;5010750;28;20116;-65
2022/09/24 06:13:27;;;;;;;6.40;4.30;;;;;;;19.26;53.87;101082.91;5010488;28;20025;-66
2022/09/24 06:15:58;;;;;;;6.38;4.30;;;;;;;19.29;54.01;101089.75;5011381;28;20046;-66
2022/09/24 06:18:23;;;;;;;6.90;4.20;;;;;;;19.34;53.85;101103.44;5011202;28;20045;-66
2022/09/24 06:20:49;;;;;;;6.20;4.07;;;;;;;19.36;53.74;101101.53;5011356;28;20026;-64
2022/09/24 06:23:14;;;;;;;5.80;4.10;;;;;;;19.37;53.96;101101.38;5010964;28;20815;-66
2022/09/24 06:25:39;;;;;;;6.23;4.20;;;;;;;19.42;53.65;101101.00;5010925;28;20101;-68
2022/09/24 06:28:04;;;;;;;6.40;4.30;;;;;;;19.46;53.81;101101.59;5010400;28;20298;-65
2022/09/24 06:30:40;;;;;;;7.35;4.38;;;;;;;19.43;53.93;101088.63;5011208;28;20350;-65
2022/09/24 06:33:08;;;;;;;8.25;4.32;;;;;;;19.49;54.03;101101.34;5011220;28;20065;-66
2022/09/24 06:35:34;;;;;;;5.53;3.70;;;;;;;19.47;53.80;101098.81;5011109;28;20041;-67
2022/09/24 06:38:00;;;;;;;5.65;3.70;;;;;;;19.52;54.33;101109.84;5010643;28;20130;-65
2022/09/24 06:40:26;;;;;;;6.68;4.22;;;;;;;19.53;53.89;101108.84;5010656;28;20021;-65
2022/09/24 06:42:52;;;;;;;6.88;4.38;;;;;;;19.51;54.05;101107.31;5010684;28;20049;-65
2022/09/24 06:45:19;;;;;;;6.00;4.18;;;;;;;19.51;53.96;101096.75;5013983;28;20518;-67
2022/09/24 06:47:51;;;;;;;5.68;3.88;;;;;;;19.48;53.94;101100.47;5014603;28;20052;-66
2022/09/24 06:50:16;;;;;;;5.65;3.72;;;;;;;19.52;54.04;101109.84;5014248;28;20048;-67
2022/09/24 06:52:42;;;;;;;5.75;4.03;;;;;;;19.54;53.91;101107.06;5014193;28;20030;-67
2022/09/24 06:55:07;;;;;;;6.07;3.58;;;;;;;19.43;54.02;101086.00;5014187;28;20045;-66
2022/09/24 06:57:33;;;;;;;6.15;4.10;;;;;;;19.55;54.26;101108.72;5014794;28;20021;-67
2022/09/24 06:59:58;;;;;;;6.88;3.95;;;;;;;19.58;54.41;101119.06;5013759;28;20026;-66
2022/09/24 07:02:23;;;;;;;6.65;4.10;;;;;;;19.58;54.23;101114.63;5014628;28;20033;-68
2022/09/24 07:04:49;;;;;;;6.78;3.53;;;;;;;19.57;54.22;101112.94;5013789;28;20021;-66
2022/09/24 07:07:30;;;;;;;6.40;4.15;;;;;;;19.65;54.29;101124.69;5014090;28;20033;-66
2022/09/24 07:09:56;;;;;;;7.03;4.57;;;;;;;19.64;54.16;101123.84;5013400;28;20030;-66
2022/09/24 07:12:22;;;;;;;6.82;3.80;;;;;;;19.64;54.44;101123.00;5014565;28;20041;-67
2022/09/24 07:14:48;;;;;;;6.88;4.32;;;;;;;19.68;54.31;101124.44;5013544;28;20116;-69
2022/09/24 07:17:14;;;;;;;7.68;3.63;;;;;;;19.67;54.45;101123.59;5013974;28;20079;-65
2022/09/24 07:19:39;;;;;;;5.55;3.70;;;;;;;19.66;54.18;101121.06;5013317;28;20413;-65
2022/09/24 07:22:05;;;;;;;6.25;4.13;;;;;;;19.67;54.35;101120.94;5014057;28;20044;-65
2022/09/24 07:24:30;;;;;;;5.93;3.95;;;;;;;19.69;54.34;101121.66;5013395;28;20057;-66
2022/09/24 07:26:55;;;;;;;5.35;3.65;;;;;;;19.65;54.51;101119.41;5013534;28;20423;-65
2022/09/24 07:29:21;;;;;;;7.25;3.75;;;;;;;19.72;54.57;101128.50;5013712;28;20057;-65
2022/09/24 07:31:46;;;;;;;6.95;3.75;;;;;;;19.73;54.56;101131.00;5013127;28;20037;-65
2022/09/24 07:34:13;;;;;;;9.40;3.75;;;;;;;19.71;54.52;101127.66;5013593;28;20120;-64
2022/09/24 07:36:39;;;;;;;7.72;3.67;;;;;;;19.75;54.56;101138.81;5013425;28;20124;-66
2022/09/24 07:39:04;;;;;;;5.80;3.95;;;;;;;19.73;54.68;101128.38;5013246;28;20095;-64
2022/09/24 07:41:30;;;;;;;9.88;3.28;;;;;;;19.73;54.73;101131.00;5013800;28;20038;-66
2022/09/24 07:43:55;;;;;;;9.23;4.10;;;;;;;19.78;54.65;101140.41;5013645;28;20030;-63
2022/09/24 07:46:21;;;;;;;8.50;4.03;;;;;;;19.78;54.89;101143.06;5011793;28;20141;-66
2022/09/24 07:48:49;;;;;;;5.70;3.50;;;;;;;19.78;54.84;101141.22;5013692;28;20033;-63
2022/09/24 07:51:15;;;;;;;7.97;4.07;;;;;;;19.78;54.67;101140.41;5013317;28;20030;-64
2022/09/24 07:53:40;;;;;;;5.80;4.07;;;;;;;19.78;54.70;101149.16;5012719;28;20040;-64
2022/09/24 07:56:05;;;;;;;7.20;4.00;;;;;;;19.73;54.87;101136.28;5012758;28;20029;-67
2022/09/24 07:58:31;;;;;;;5.90;4.10;;;;;;;19.75;54.69;101138.81;5013188;28;20538;-68
2022/09/24 08:00:58;;;;;;;6.85;4.18;;;;;;;19.76;54.72;101148.47;5013499;28;20040;-65
2022/09/24 08:03:23;;;;;;;6.78;3.60;;;;;;;19.81;54.67;101151.56;5012741;28;20068;-68
2022/09/24 08:05:49;;;;;;;6.05;3.78;;;;;;;19.82;54.63;101150.59;5013154;28;20370;-63
2022/09/24 08:08:14;;;;;;;6.15;3.78;;;;;;;19.82;54.44;101158.53;5013027;28;20037;-64
2022/09/24 08:10:40;;;;;;;6.57;4.07;;;;;;;19.72;54.24;101137.25;5012609;28;20072;-65
2022/09/24 08:13:06;;;;;;;6.60;3.78;;;;;;;19.78;54.52;101150.97;5013245;28;20029;-67
2022/09/24 08:15:31;;;;;;;5.60;3.70;;;;;;;19.78;54.56;101153.63;5012685;28;20061;-64
2022/09/24 08:18:04;;;;;;;7.20;4.07;;;;;;;19.79;54.63;101160.56;5011604;28;20089;-80
2022/09/24 08:20:31;;;;;;;6.57;4.15;;;;;;;19.74;55.02;101158.28;5011148;28;20033;-72
2022/09/24 08:23:05;;;;;;;5.72;3.60;;;;;;;19.68;55.05;101156.16;5012266;28;20385;-71
2022/09/24 08:25:30;;;;;;;;;;;;;;;19.67;55.21;101168.53;5012905;28;20029;-72
2022/09/24 08:28:06;;;;;;;7.47;4.07;;;;;;;19.67;55.22;101160.59;5011763;28;19928;-71
2022/09/24 08:30:33;;;;;;;6.20;3.90;;;;;;;19.66;55.42;101158.09;5011924;28;20073;-70
2022/09/24 08:32:58;;;;;;;6.28;3.70;;;;;;;19.72;55.09;101170.78;5011442;28;20026;-71
2022/09/24 08:35:24;;;;;;;6.28;3.50;;;;;;;19.72;55.49;101168.97;5011546;28;20033;-71
2022/09/24 08:37:52;;;;;;;6.97;3.80;;;;;;;19.74;55.39;101166.22;5013073;28;20108;-76
2022/09/24 08:40:24;;;;;;;8.25;4.70;;;;;;;19.85;56.07;101176.78;5013044;28;20026;-73
2022/09/24 08:43:03;;;;;;;12.32;5.15;;;;;;;20.00;56.89;101179.94;5012324;28;20034;-75
2022/09/24 08:48:26;;;;;;;9.27;5.18;;;;;;;20.16;56.62;101178.66;5010559;28;20099;-68
2022/09/24 08:50:59;;;;;;;11.00;5.40;;;;;;;20.22;56.54;101183.41;5011719;28;20449;-74
2022/09/24 08:53:52;;;;;;;9.20;4.90;;;;;;;20.27;56.46;101187.34;5012062;28;20040;-75
2022/09/24 08:56:24;;;;;;;9.63;5.10;;;;;;;20.35;56.34;101188.53;5012010;28;20030;-70
2022/09/24 08:58:57;;;;;;;11.60;5.05;;;;;;;20.35;56.09;101184.06;5012982;28;20462;-72
2022/09/24 09:02:01;;;;;;;8.30;4.38;;;;;;;20.41;55.95;101196.78;5017731;28;20789;-72
2022/09/24 09:04:38;;;;;;;10.15;4.88;;;;;;;20.47;55.73;101190.97;4997488;28;20042;-76
2022/09/24 09:07:21;;;;;;;8.15;4.68;;;;;;;20.52;55.75;101192.34;5011915;28;20056;-73
2022/09/24 09:10:16;;;;;;;8.80;4.82;;;;;;;20.54;55.49;101193.91;5011709;28;20028;-75
2022/09/24 09:12:46;;;;;;;8.68;5.13;;;;;;;20.54;55.21;101185.97;5027905;28;20069;-71
2022/09/24 09:15:31;;;;;;;9.07;4.90;;;;;;;20.56;55.36;101185.84;5009894;28;20048;-71
2022/09/24 09:18:03;;;;;;;10.88;5.03;;;;;;;20.61;55.17;101197.69;5011069;28;20425;-71
2022/09/24 09:20:31;;;;;;;7.70;4.68;;;;;;;20.63;55.08;101194.91;5011428;28;20025;-70
2022/09/24 09:23:02;;;;;;;8.80;5.15;;;;;;;20.60;55.25;101197.81;5011440;28;20030;-69
2022/09/24 09:25:32;;;;;;;7.72;4.68;;;;;;;20.40;55.41;101173.09;5013407;28;21029;-78
2022/09/24 09:28:02;;;;;;;8.88;4.78;;;;;;;20.54;55.33;101193.91;5011379;28;20118;-76
2022/09/24 09:30:36;;;;;;;7.68;4.65;;;;;;;20.57;55.27;101192.78;5011068;28;20037;-76
2022/09/24 09:33:09;;;;;;;10.25;5.07;;;;;;;20.62;55.09;101199.38;5010912;28;20126;-76
2022/09/24 09:35:50;;;;;;;10.57;4.50;;;;;;;20.59;55.43;101194.34;5012610;28;20072;-75
2022/09/24 09:38:17;;;;;;;7.57;4.82;;;;;;;20.59;54.98;101197.00;5010985;28;20032;-73
2022/09/24 09:41:01;;;;;;;9.50;4.90;;;;;;;20.64;55.13;101200.09;5010975;28;20057;-76
2022/09/24 09:43:26;;;;;;;8.85;4.68;;;;;;;20.67;54.88;101193.72;5011638;28;20038;-73
2022/09/24 09:46:24;;;;;;;10.13;4.88;;;;;;;20.66;54.69;101184.09;5010153;28;20080;-78
2022/09/24 09:48:55;;;;;;;7.03;4.68;;;;;;;20.73;54.63;101190.53;5011945;28;20137;-72
2022/09/24 09:51:24;;;;;;;7.50;4.50;;;;;;;20.75;54.68;101188.59;5011083;28;20045;-73
2022/09/24 09:54:01;;;;;;;11.35;4.47;;;;;;;20.69;54.48;101183.00;5010366;28;20038;-70
2022/09/24 09:56:44;;;;;;;8.93;4.60;;;;;;;20.67;54.74;101180.47;5011055;28;20033;-75
2022/09/24 09:59:09;;;;;;;9.47;5.20;;;;;;;20.71;54.84;101192.50;5010581;28;20037;-76
2022/09/24 10:01:39;;;;;;;8.30;4.50;;;;;;;20.67;54.72;101185.78;5012391;28;20742;-77
2022/09/24 10:04:20;;;;;;;7.10;4.20;;;;;;;20.67;54.60;101191.06;5010657;28;20341;-73
2022/09/24 10:06:46;;;;;;;8.75;4.53;;;;;;;20.65;54.61;101191.22;5010859;28;20052;-74
2022/09/24 10:09:20;;;;;;;6.82;4.30;;;;;;;20.70;54.67;101203.22;5012563;28;20052;-74
2022/09/24 10:11:46;;;;;;;9.00;4.32;;;;;;;20.69;54.79;101199.72;5012220;28;20034;-76
2022/09/24 10:14:14;;;;;;;7.53;4.55;;;;;;;20.64;54.68;101191.34;5011005;28;20034;-74
2022/09/24 10:16:48;;;;;;;8.73;4.55;;;;;;;20.67;54.83;101196.38;5011648;28;20068;-75
2022/09/24 10:19:24;;;;;;;7.53;4.00;;;;;;;20.70;54.42;101195.28;5012614;28;20060;-74
2022/09/24 10:21:51;;;;;;;6.40;4.00;;;;;;;20.64;54.79;101192.16;5014664;28;20034;-75
2022/09/24 10:24:24;;;;;;;7.75;4.38;;;;;;;20.64;54.84;101184.22;5015767;28;20056;-73
2022/09/24 10:26:49;;;;;;;6.85;4.00;;;;;;;20.67;54.63;101184.94;5014448;28;20061;-71
2022/09/24 10:32:24;;;;;;;8.88;4.38;;;;;;;20.60;54.59;101185.44;5013732;28;20068;-77
2022/09/24 10:35:17;;;;;;;7.68;3.88;;;;;;;20.56;54.84;101180.53;5014123;28;20071;-79
2022/09/24 10:37:50;;;;;;;7.75;3.78;;;;;;;20.59;54.79;101181.09;5013325;28;20041;-71
2022/09/24 10:40:22;;;;;;;7.28;3.92;;;;;;;20.66;54.49;101189.38;5014906;28;20081;-75
2022/09/24 10:42:58;;;;;;;7.90;4.57;;;;;;;20.67;54.56;101185.78;5013621;28;20034;-70
2022/09/24 10:45:33;;;;;;;7.07;4.57;;;;;;;20.62;54.44;101183.50;5012585;28;20025;-65
2022/09/24 10:48:22;;;;;;;9.27;4.32;;;;;;;20.62;54.39;101193.25;5011768;28;20478;-66
2022/09/24 10:51:11;;;;;;;8.77;4.40;;;;;;;20.63;54.40;101198.41;5014128;28;20033;-67
2022/09/24 10:54:02;;;;;;;7.78;4.55;;;;;;;20.62;54.58;101201.19;5007489;28;20044;-66
2022/09/24 10:56:46;;;;;;;7.78;4.70;;;;;;;20.61;54.47;101204.81;5014307;28;20033;-67
2022/09/24 10:59:40;;;;;;;8.98;4.05;;;;;;;20.58;54.60;101197.97;5014610;28;20042;-68
2022/09/24 11:02:11;;;;;;;8.87;4.50;;;;;;;20.57;54.82;101208.69;5014895;28;20065;-70
2022/09/24 11:05:09;;;;;;;6.30;3.97;;;;;;;20.58;54.74;101207.72;5012106;28;20029;-75
2022/09/24 11:08:08;;;;;;;8.90;4.75;;;;;;;20.56;55.09;101207.03;4999135;28;20049;-74
2022/09/24 11:11:10;;;;;;;7.57;4.18;;;;;;;20.54;55.16;101206.31;5013556;28;20025;-76
2022/09/24 11:13:45;;;;;;;6.85;3.92;;;;;;;20.56;55.21;101215.78;5013267;28;20651;-77
2022/09/24 11:16:19;;;;;;;6.53;3.92;;;;;;;20.58;54.93;101213.84;5014168;28;20402;-76
2022/09/24 11:18:45;;;;;;;;;;;;;;;20.61;55.00;101210.09;5013101;28;20472;-77
2022/09/24 11:21:32;;;;;;;7.88;3.75;;;;;;;20.60;54.80;101205.78;5013980;28;19909;-75
2022/09/24 11:24:27;;;;;;;6.60;3.95;;;;;;;20.68;54.72;101211.31;5012967;28;20038;-73
2022/09/24 11:27:20;;;;;;;8.95;3.75;;;;;;;20.69;54.78;101212.97;5012365;28;20053;-72
2022/09/24 11:30:01;;;;;;;7.28;3.80;;;;;;;20.69;54.65;101214.78;5012960;28;20108;-69
2022/09/24 11:32:43;;;;;;;7.88;3.78;;;;;;;20.67;54.58;101216.72;5011323;28;20478;-68
2022/09/24 11:35:20;;;;;;;9.48;4.53;;;;;;;20.67;54.79;101203.50;5013506;28;20469;-75
2022/09/24 11:38:05;;;;;;;5.70;3.88;;;;;;;20.69;54.86;101217.44;5013801;28;20034;-77
2022/09/24 11:40:55;;;;;;;8.23;3.92;;;;;;;20.72;54.96;101210.03;5013333;28;20037;-76
2022/09/24 11:43:45;;;;;;;6.18;3.78;;;;;;;20.75;54.59;101209.78;5014448;28;20090;-74
2022/09/24 11:46:37;;;;;;;6.47;3.90;;;;;;;20.75;54.43;101204.47;5014542;28;20256;-75
2022/09/24 11:49:39;;;;;;;7.53;4.00;;;;;;;20.77;54.45;101204.34;5013787;28;20137;-76
2022/09/24 11:52:14;;;;;;;8.60;4.25;;;;;;;20.81;54.54;101195.19;5013947;28;20030;-74